Time;durP1;ratioP1;P1;durP2;ratioP2;P2;SDS_P1;SDS_P2;PMS_P1;PMS_P2;Temp;Humidity;BMP_temperature;BMP_pressure;BME280_temperature;BME280_humidity;BME280_pressure;Samples;Min_cycle;Max_cycle;Signal;HPM_P1;HPM_P2
2022/06/11 00:01:43;;;;;;;0.00;0.00;;;;;;;;;;5022127;28;93947;-74
2022/06/11 00:04:14;;;;;;;0.00;0.00;;;;;;;;;;5039710;28;93437;-73
2022/06/11 00:06:43;;;;;;;0.17;0.17;;;;;;;;;;5041287;28;94617;-74
2022/06/11 00:09:11;;;;;;;0.00;0.00;;;;;;;;;;5039704;28;93470;-74
2022/06/11 00:11:38;;;;;;;0.00;0.00;;;;;;;;;;5040150;28;92356;-74
2022/06/11 00:14:05;;;;;;;0.00;0.00;;;;;;;;;;5040014;28;92923;-74
2022/06/11 00:16:31;;;;;;;0.00;0.00;;;;;;;;;;5039999;28;93433;-73
2022/06/11 00:18:58;;;;;;;0.00;0.00;;;;;;;;;;5040085;28;92265;-74
2022/06/11 00:21:26;;;;;;;0.00;0.00;;;;;;;;;;5039595;28;92883;-73
2022/06/11 00:23:53;;;;;;;0.00;0.00;;;;;;;;;;5040285;28;92321;-74
2022/06/11 00:26:20;;;;;;;0.00;0.00;;;;;;;;;;5043017;28;92230;-74
2022/06/11 00:28:47;;;;;;;0.00;0.00;;;;;;;;;;5039810;28;93647;-73
2022/06/11 00:31:14;;;;;;;0.00;0.00;;;;;;;;;;5038034;28;94617;-74
2022/06/11 00:33:40;;;;;;;0.00;0.00;;;;;;;;;;5039518;28;95114;-74
2022/06/11 00:36:07;;;;;;;0.00;0.00;;;;;;;;;;5021224;28;94996;-74
2022/06/11 00:38:35;;;;;;;0.00;0.00;;;;;;;;;;5039775;28;92278;-74
2022/06/11 00:41:01;;;;;;;0.00;0.00;;;;;;;;;;5039629;28;93266;-74
2022/06/11 00:43:28;;;;;;;0.05;0.05;;;;;;;;;;5039274;28;93211;-74
2022/06/11 00:45:57;;;;;;;0.00;0.00;;;;;;;;;;5039435;28;92255;-74
2022/06/11 00:48:35;;;;;;;0.00;0.00;;;;;;;;;;5025000;28;93300;-74
2022/06/11 00:51:12;;;;;;;0.10;0.10;;;;;;;;;;5021864;28;92409;-74
2022/06/11 00:53:46;;;;;;;0.00;0.00;;;;;;;;;;5039374;28;92905;-74
2022/06/11 00:56:17;;;;;;;0.10;0.10;;;;;;;;;;5037664;28;95897;-74
2022/06/11 00:58:45;;;;;;;0.00;0.00;;;;;;;;;;5038987;28;92417;-73
2022/06/11 01:01:13;;;;;;;0.08;0.08;;;;;;;;;;5038863;28;93317;-73
2022/06/11 01:03:41;;;;;;;0.00;0.00;;;;;;;;;;5038866;27;93338;-73
2022/06/11 01:06:24;;;;;;;0.00;0.00;;;;;;;;;;5038946;28;92303;-73
2022/06/11 01:08:54;;;;;;;0.10;0.10;;;;;;;;;;5039316;28;93540;-73
2022/06/11 01:11:39;;;;;;;0.00;0.00;;;;;;;;;;5041706;28;93421;-73
2022/06/11 01:14:15;;;;;;;0.00;0.00;;;;;;;;;;5021489;28;93960;-73
2022/06/11 01:16:47;;;;;;;0.00;0.00;;;;;;;;;;5039039;28;93496;-73
2022/06/11 01:19:36;;;;;;;0.00;0.00;;;;;;;;;;5041700;27;92408;-73
2022/06/11 01:22:08;;;;;;;0.00;0.00;;;;;;;;;;5037019;28;94695;-73
2022/06/11 01:24:38;;;;;;;0.00;0.00;;;;;;;;;;5038804;28;93676;-73
2022/06/11 01:27:28;;;;;;;0.00;0.00;;;;;;;;;;5038976;28;92167;-73
2022/06/11 01:30:07;;;;;;;0.08;0.08;;;;;;;;;;5038763;28;93416;-73
2022/06/11 01:32:44;;;;;;;0.10;0.10;;;;;;;;;;5038491;28;93023;-73
2022/06/11 01:35:13;;;;;;;0.00;0.00;;;;;;;;;;5041868;28;92284;-73
2022/06/11 01:37:46;;;;;;;0.00;0.00;;;;;;;;;;5038479;28;93589;-73
2022/06/11 01:40:17;;;;;;;0.00;0.00;;;;;;;;;;5039236;28;91484;-73
2022/06/11 01:42:46;;;;;;;0.00;0.00;;;;;;;;;;5038155;28;92540;-73
2022/06/11 01:45:19;;;;;;;0.00;0.00;;;;;;;;;;5038462;28;94072;-73
2022/06/11 01:47:46;;;;;;;0.00;0.00;;;;;;;;;;5036738;28;94699;-73
2022/06/11 01:50:14;;;;;;;0.00;0.00;;;;;;;;;;5038497;28;95722;-73
2022/06/11 01:52:59;;;;;;;0.00;0.00;;;;;;;;;;5038329;28;93520;-73
2022/06/11 01:55:44;;;;;;;0.00;0.00;;;;;;;;;;5038020;28;92725;-73
2022/06/11 01:58:17;;;;;;;0.00;0.00;;;;;;;;;;5040837;28;93403;-73
2022/06/11 02:00:48;;;;;;;0.00;0.00;;;;;;;;;;5038386;28;92317;-73
2022/06/11 02:03:36;;;;;;;0.95;0.90;;;;;;;;;;5038090;28;93360;-73
2022/06/11 02:06:05;;;;;;;0.00;0.00;;;;;;;;;;5038689;28;92898;-73
2022/06/11 02:08:41;;;;;;;0.00;0.00;;;;;;;;;;5037191;28;92332;-73
2022/06/11 02:11:14;;;;;;;0.00;0.00;;;;;;;;;;5037563;28;93444;-74
2022/06/11 02:13:44;;;;;;;0.00;0.00;;;;;;;;;;5036263;28;95817;-73
2022/06/11 02:16:10;;;;;;;0.03;0.03;;;;;;;;;;5036878;27;92352;-73
2022/06/11 02:18:38;;;;;;;0.10;0.10;;;;;;;;;;5038010;28;92683;-73
2022/06/11 02:21:09;;;;;;;0.00;0.00;;;;;;;;;;5040962;28;93454;-74
2022/06/11 02:23:41;;;;;;;0.00;0.00;;;;;;;;;;5037471;28;93331;-73
2022/06/11 02:26:07;;;;;;;;;;;;;;;;;;5038215;28;93752;-73
2022/06/11 02:28:35;;;;;;;0.00;0.00;;;;;;;;;;5036944;28;118075;-73
2022/06/11 02:31:04;;;;;;;0.00;0.00;;;;;;;;;;5038472;28;93372;-73
2022/06/11 02:33:31;;;;;;;0.00;0.00;;;;;;;;;;5037419;28;93648;-73
2022/06/11 02:36:00;;;;;;;0.00;0.00;;;;;;;;;;5037842;28;92102;-73
2022/06/11 02:38:28;;;;;;;0.10;0.10;;;;;;;;;;5036016;28;94760;-73
2022/06/11 02:40:59;;;;;;;0.00;0.00;;;;;;;;;;5040765;28;93541;-73
2022/06/11 02:43:26;;;;;;;0.00;0.00;;;;;;;;;;5037707;28;93421;-73
2022/06/11 02:45:53;;;;;;;0.00;0.00;;;;;;;;;;5037273;28;93867;-73
2022/06/11 02:48:20;;;;;;;0.00;0.00;;;;;;;;;;5037680;28;93642;-73
2022/06/11 02:50:47;;;;;;;0.00;0.00;;;;;;;;;;5037188;28;93649;-73
2022/06/11 02:53:14;;;;;;;0.00;0.00;;;;;;;;;;5037277;28;93415;-73
2022/06/11 02:55:41;;;;;;;0.00;0.00;;;;;;;;;;5037944;28;93056;-74
2022/06/11 02:58:09;;;;;;;0.00;0.00;;;;;;;;;;5019110;28;94096;-73
2022/06/11 03:00:38;;;;;;;0.00;0.00;;;;;;;;;;5037277;28;93788;-73
2022/06/11 03:03:04;;;;;;;0.00;0.00;;;;;;;;;;5038481;28;94634;-74
2022/06/11 03:05:34;;;;;;;0.00;0.00;;;;;;;;;;5037173;28;93673;-73
2022/06/11 03:08:01;;;;;;;0.00;0.00;;;;;;;;;;5019719;28;92352;-73
2022/06/11 03:10:27;;;;;;;0.00;0.00;;;;;;;;;;5037157;28;93994;-73
2022/06/11 03:12:54;;;;;;;0.00;0.00;;;;;;;;;;5036998;28;93598;-74
2022/06/11 03:15:22;;;;;;;0.00;0.00;;;;;;;;;;5037057;28;92240;-73
2022/06/11 03:17:49;;;;;;;0.00;0.00;;;;;;;;;;5036720;28;93401;-73
2022/06/11 03:20:16;;;;;;;0.00;0.00;;;;;;;;;;5037349;28;92398;-73
2022/06/11 03:22:43;;;;;;;0.00;0.00;;;;;;;;;;5036881;28;92617;-73
2022/06/11 03:25:10;;;;;;;0.00;0.00;;;;;;;;;;5039864;28;92650;-73
2022/06/11 03:27:38;;;;;;;0.00;0.00;;;;;;;;;;5036178;27;94621;-73
2022/06/11 03:30:07;;;;;;;0.00;0.00;;;;;;;;;;5040468;28;95162;-73
2022/06/11 03:32:33;;;;;;;0.00;0.00;;;;;;;;;;5040359;28;93170;-73
2022/06/11 03:35:00;;;;;;;0.00;0.00;;;;;;;;;;5040522;28;92132;-73
2022/06/11 03:37:26;;;;;;;0.00;0.00;;;;;;;;;;5040570;28;93384;-73
2022/06/11 03:39:53;;;;;;;0.00;0.00;;;;;;;;;;5040388;28;93635;-73
2022/06/11 03:42:19;;;;;;;0.00;0.00;;;;;;;;;;5040246;28;92400;-72
2022/06/11 03:44:46;;;;;;;0.00;0.00;;;;;;;;;;5040678;28;92988;-73
2022/06/11 03:47:12;;;;;;;0.00;0.00;;;;;;;;;;5043386;28;93849;-72
2022/06/11 03:49:38;;;;;;;0.00;0.00;;;;;;;;;;5040354;28;92569;-73
2022/06/11 03:52:06;;;;;;;0.00;0.00;;;;;;;;;;5038437;28;96110;-73
2022/06/11 03:54:32;;;;;;;0.00;0.00;;;;;;;;;;5040431;28;92245;-73
2022/06/11 03:56:59;;;;;;;0.00;0.00;;;;;;;;;;5040545;28;93493;-73
2022/06/11 03:59:25;;;;;;;0.00;0.00;;;;;;;;;;5039462;28;93514;-73
2022/06/11 04:01:52;;;;;;;0.00;0.00;;;;;;;;;;5040198;28;92240;-73
2022/06/11 04:04:20;;;;;;;0.00;0.00;;;;;;;;;;5040219;28;93327;-73
2022/06/11 04:06:49;;;;;;;0.00;0.00;;;;;;;;;;5039870;28;93308;-73
2022/06/11 04:09:18;;;;;;;0.00;0.00;;;;;;;;;;5043535;28;91492;-73
2022/06/11 04:11:45;;;;;;;0.00;0.00;;;;;;;;;;5039928;28;93690;-73
2022/06/11 04:14:12;;;;;;;0.00;0.00;;;;;;;;;;5039698;28;92324;-73
2022/06/11 04:16:43;;;;;;;0.10;0.10;;;;;;;;;;5038529;28;94704;-72
2022/06/11 04:19:14;;;;;;;0.00;0.00;;;;;;;;;;5021747;28;95078;-72
2022/06/11 04:21:41;;;;;;;0.00;0.00;;;;;;;;;;5039861;28;92340;-72
2022/06/11 04:24:07;;;;;;;0.00;0.00;;;;;;;;;;5039837;28;93302;-72
2022/06/11 04:26:36;;;;;;;0.00;0.00;;;;;;;;;;5038962;28;93732;-73
2022/06/11 04:29:04;;;;;;;0.00;0.00;;;;;;;;;;5039888;28;92196;-73
2022/06/11 04:31:31;;;;;;;0.00;0.00;;;;;;;;;;5025236;28;93398;-72
2022/06/11 04:33:58;;;;;;;0.00;0.00;;;;;;;;;;5040092;28;91557;-73
2022/06/11 04:36:25;;;;;;;0.00;0.00;;;;;;;;;;5022135;28;92553;-73
2022/06/11 04:38:52;;;;;;;0.00;0.00;;;;;;;;;;5038656;27;93779;-72
2022/06/11 04:41:19;;;;;;;0.10;0.10;;;;;;;;;;5037692;28;94886;-73
2022/06/11 04:43:45;;;;;;;0.00;0.00;;;;;;;;;;5039501;28;96089;-72
2022/06/11 04:46:12;;;;;;;0.00;0.00;;;;;;;;;;5021716;28;93543;-72
2022/06/11 04:48:39;;;;;;;0.00;0.00;;;;;;;;;;5039587;28;92113;-72
2022/06/11 04:51:06;;;;;;;0.00;0.00;;;;;;;;;;5042344;28;93171;-72
2022/06/11 04:53:33;;;;;;;0.00;0.00;;;;;;;;;;5039092;28;92319;-74
2022/06/11 04:55:59;;;;;;;0.00;0.00;;;;;;;;;;5039196;28;93118;-72
2022/06/11 04:58:26;;;;;;;0.00;0.00;;;;;;;;;;5039234;28;91867;-74
2022/06/11 05:00:52;;;;;;;0.00;0.00;;;;;;;;;;5039372;28;92375;-74
2022/06/11 05:03:19;;;;;;;0.00;0.00;;;;;;;;;;5039209;28;93735;-73
2022/06/11 05:05:45;;;;;;;0.00;0.00;;;;;;;;;;5037161;28;95920;-73
2022/06/11 05:08:12;;;;;;;0.68;0.68;;;;;;;;;;5038809;28;92411;-74
2022/06/11 05:10:39;;;;;;;0.00;0.00;;;;;;;;;;5038955;28;92848;-73
2022/06/11 05:13:06;;;;;;;0.00;0.00;;;;;;;;;;5042313;28;93582;-73
2022/06/11 05:15:34;;;;;;;0.00;0.00;;;;;;;;;;5038929;28;93529;-73
2022/06/11 05:18:01;;;;;;;0.00;0.00;;;;;;;;;;5038859;28;93632;-74
2022/06/11 05:20:31;;;;;;;0.00;0.00;;;;;;;;;;5039080;28;92516;-74
2022/06/11 05:22:57;;;;;;;0.10;0.10;;;;;;;;;;5038825;28;93326;-74
2022/06/11 05:25:23;;;;;;;0.00;0.00;;;;;;;;;;5038882;28;93619;-74
2022/06/11 05:27:50;;;;;;;0.10;0.10;;;;;;;;;;5038900;28;92364;-74
2022/06/11 05:30:21;;;;;;;0.10;0.10;;;;;;;;;;5037269;28;94773;-75
2022/06/11 05:32:48;;;;;;;0.00;0.00;;;;;;;;;;5038638;28;94101;-75
2022/06/11 05:35:16;;;;;;;0.00;0.00;;;;;;;;;;5041656;28;92475;-73
2022/06/11 05:37:44;;;;;;;0.20;0.17;;;;;;;;;;5038561;28;93585;-73
2022/06/11 05:40:11;;;;;;;0.10;0.10;;;;;;;;;;5038634;28;92356;-73
2022/06/11 05:42:38;;;;;;;0.10;0.10;;;;;;;;;;5020928;28;93292;-73
2022/06/11 05:45:05;;;;;;;0.10;0.10;;;;;;;;;;5038446;28;92628;-73
2022/06/11 05:47:32;;;;;;;0.10;0.10;;;;;;;;;;5038964;28;91527;-73
2022/06/11 05:49:59;;;;;;;0.10;0.10;;;;;;;;;;5037868;28;92488;-73
2022/06/11 05:52:29;;;;;;;0.10;0.10;;;;;;;;;;5038225;28;93525;-72
2022/06/11 05:54:55;;;;;;;0.10;0.10;;;;;;;;;;5036734;28;94545;-74
2022/06/11 05:57:24;;;;;;;0.10;0.10;;;;;;;;;;5041151;28;95646;-73
2022/06/11 06:00:01;;;;;;;0.10;0.10;;;;;;;;;;5037958;28;92230;-73
2022/06/11 06:02:28;;;;;;;0.10;0.10;;;;;;;;;;5038066;28;93212;-75
2022/06/11 06:04:55;;;;;;;0.20;0.20;;;;;;;;;;5038110;28;93786;-75
2022/06/11 06:07:22;;;;;;;0.10;0.10;;;;;;;;;;5020764;28;92351;-74
2022/06/11 06:09:48;;;;;;;0.10;0.10;;;;;;;;;;5038069;28;93681;-74
2022/06/11 06:12:16;;;;;;;1.00;0.90;;;;;;;;;;5038599;28;93220;-75
2022/06/11 06:14:43;;;;;;;0.10;0.10;;;;;;;;;;5038289;28;92285;-75
2022/06/11 06:17:09;;;;;;;0.08;0.08;;;;;;;;;;5037750;28;93349;-75
2022/06/11 06:19:57;;;;;;;0.10;0.10;;;;;;;;;;5039425;28;95897;-75
2022/06/11 06:22:23;;;;;;;0.10;0.10;;;;;;;;;;5037777;28;95251;-75
2022/06/11 06:24:50;;;;;;;0.10;0.10;;;;;;;;;;5037792;28;93162;-75
2022/06/11 06:27:16;;;;;;;0.10;0.10;;;;;;;;;;5019980;28;92484;-76
2022/06/11 06:29:43;;;;;;;0.10;0.10;;;;;;;;;;5037325;28;93389;-75
2022/06/11 06:32:09;;;;;;;0.10;0.10;;;;;;;;;;5037561;28;93384;-74
2022/06/11 06:34:35;;;;;;;0.10;0.10;;;;;;;;;;5037711;28;92284;-73
2022/06/11 06:37:02;;;;;;;0.10;0.10;;;;;;;;;;5038225;28;93393;-74
2022/06/11 06:39:29;;;;;;;0.10;0.10;;;;;;;;;;5037529;28;93990;-74
2022/06/11 06:41:56;;;;;;;0.10;0.10;;;;;;;;;;5040727;28;92343;-74
2022/06/11 06:44:22;;;;;;;0.10;0.10;;;;;;;;;;5035321;28;96143;-74
2022/06/11 06:46:48;;;;;;;0.00;0.00;;;;;;;;;;5037467;28;92268;-74
2022/06/11 06:49:15;;;;;;;0.52;0.52;;;;;;;;;;5037535;28;93131;-73
2022/06/11 06:51:42;;;;;;;0.10;0.10;;;;;;;;;;5037781;28;92661;-74
2022/06/11 06:54:08;;;;;;;0.10;0.10;;;;;;;;;;5037478;28;92160;-75
2022/06/11 06:56:34;;;;;;;0.28;0.28;;;;;;;;;;5037111;28;93460;-76
2022/06/11 06:59:02;;;;;;;0.10;0.10;;;;;;;;;;5036654;28;93463;-75
2022/06/11 07:01:29;;;;;;;0.10;0.10;;;;;;;;;;5041083;28;92750;-76
2022/06/11 07:03:55;;;;;;;0.10;0.10;;;;;;;;;;5036517;28;93583;-75
2022/06/11 07:06:42;;;;;;;0.10;0.10;;;;;;;;;;5037482;28;92385;-76
2022/06/11 07:09:09;;;;;;;0.30;0.30;;;;;;;;;;5035450;28;94850;-78
2022/06/11 07:11:37;;;;;;;0.00;0.00;;;;;;;;;;5037055;28;93870;-76
2022/06/11 07:14:03;;;;;;;0.00;0.00;;;;;;;;;;5037150;28;92344;-79
2022/06/11 07:16:32;;;;;;;0.10;0.10;;;;;;;;;;5037436;28;93869;-73
2022/06/11 07:19:00;;;;;;;0.25;0.25;;;;;;;;;;5036907;28;93992;-73
2022/06/11 07:21:34;;;;;;;0.10;0.10;;;;;;;;;;5037081;28;92242;-72
2022/06/11 07:24:03;;;;;;;0.10;0.10;;;;;;;;;;5039717;28;93365;-75
2022/06/11 07:26:34;;;;;;;0.00;0.00;;;;;;;;;;5019489;28;91552;-74
2022/06/11 07:29:05;;;;;;;0.10;0.10;;;;;;;;;;5037102;28;92611;-74
2022/06/11 07:31:31;;;;;;;0.10;0.10;;;;;;;;;;5036820;28;93030;-75
2022/06/11 07:33:58;;;;;;;0.10;0.10;;;;;;;;;;5035057;28;94637;-73
2022/06/11 07:36:25;;;;;;;0.98;0.28;;;;;;;;;;5036481;28;95233;-74
2022/06/11 07:38:52;;;;;;;0.10;0.10;;;;;;;;;;5036988;28;93282;-74
2022/06/11 07:41:18;;;;;;;2.90;0.63;;;;;;;;;;5036884;28;92312;-74
2022/06/11 07:43:44;;;;;;;0.00;0.00;;;;;;;;;;5036896;28;93542;-73
2022/06/11 07:46:11;;;;;;;0.45;0.45;;;;;;;;;;5039553;28;93470;-74
2022/06/11 07:48:37;;;;;;;0.20;0.20;;;;;;;;;;5036622;28;93419;-75
2022/06/11 07:51:04;;;;;;;0.10;0.10;;;;;;;;;;5036694;28;93392;-74
2022/06/11 07:53:31;;;;;;;0.10;0.10;;;;;;;;;;5036621;28;93242;-74
2022/06/11 07:55:58;;;;;;;0.10;0.10;;;;;;;;;;5036576;28;93218;-74
2022/06/11 07:58:26;;;;;;;0.68;0.68;;;;;;;;;;5034728;28;95987;-75
2022/06/11 08:00:53;;;;;;;0.10;0.10;;;;;;;;;;5036644;28;92335;-74
2022/06/11 08:03:20;;;;;;;0.10;0.10;;;;;;;;;;5036712;28;93335;-74
2022/06/11 08:05:47;;;;;;;0.10;0.10;;;;;;;;;;5036309;28;93300;-75
2022/06/11 08:08:14;;;;;;;0.10;0.10;;;;;;;;;;5039811;28;92165;-74
2022/06/11 08:10:42;;;;;;;0.10;0.10;;;;;;;;;;5036352;28;93646;-75
2022/06/11 08:13:08;;;;;;;0.10;0.10;;;;;;;;;;5036755;27;92382;-74
2022/06/11 08:15:36;;;;;;;0.10;0.10;;;;;;;;;;5040459;28;93524;-74
2022/06/11 08:18:03;;;;;;;0.10;0.10;;;;;;;;;;5039467;28;93640;-75
2022/06/11 08:20:30;;;;;;;0.10;0.10;;;;;;;;;;5039894;28;92339;-75
2022/06/11 08:22:58;;;;;;;0.10;0.10;;;;;;;;;;5038301;28;94804;-74
2022/06/11 08:25:24;;;;;;;0.10;0.10;;;;;;;;;;5039874;28;93219;-75
2022/06/11 08:27:51;;;;;;;0.10;0.10;;;;;;;;;;5039790;28;92284;-75
2022/06/11 08:30:19;;;;;;;0.10;0.10;;;;;;;;;;5042675;28;93357;-75
2022/06/11 08:32:46;;;;;;;0.10;0.10;;;;;;;;;;5039353;28;92152;-75
2022/06/11 08:35:13;;;;;;;0.10;0.10;;;;;;;;;;5039587;28;93338;-73
2022/06/11 08:37:39;;;;;;;0.10;0.10;;;;;;;;;;5021190;28;95533;-74
2022/06/11 08:40:07;;;;;;;0.10;0.10;;;;;;;;;;5039981;28;91627;-74
2022/06/11 08:42:41;;;;;;;0.10;0.10;;;;;;;;;;5039529;28;92909;-77
2022/06/11 08:45:18;;;;;;;0.10;0.10;;;;;;;;;;5039142;28;93968;-78
2022/06/11 08:47:48;;;;;;;0.40;0.35;;;;;;;;;;5037837;28;94756;-77
2022/06/11 08:50:16;;;;;;;0.10;0.10;;;;;;;;;;5042349;28;95759;-77
2022/06/11 08:52:44;;;;;;;0.10;0.10;;;;;;;;;;5039546;28;92342;-76
2022/06/11 08:55:10;;;;;;;0.10;0.10;;;;;;;;;;5039661;28;92786;-77
2022/06/11 08:57:43;;;;;;;0.10;0.10;;;;;;;;;;5039056;28;92902;-77
2022/06/11 09:00:09;;;;;;;0.10;0.10;;;;;;;;;;5039237;28;92286;-77
2022/06/11 09:02:45;;;;;;;0.15;0.15;;;;;;;;;;5039385;28;93342;-75
2022/06/11 09:05:11;;;;;;;0.10;0.10;;;;;;;;;;5039262;28;93121;-79
2022/06/11 09:07:56;;;;;;;0.20;0.20;;;;;;;;;;5039106;28;92363;-70
2022/06/11 09:10:41;;;;;;;0.10;0.10;;;;;;;;;;5038830;28;93444;-77
2022/06/11 09:13:26;;;;;;;0.10;0.10;;;;;;;;;;5040410;28;95494;-73
2022/06/11 09:16:13;;;;;;;0.10;0.10;;;;;;;;;;5038805;28;95453;-74
2022/06/11 09:18:49;;;;;;;0.52;0.52;;;;;;;;;;5038130;28;93927;-76
2022/06/11 09:21:34;;;;;;;0.10;0.10;;;;;;;;;;5039049;28;92320;-78
2022/06/11 09:24:19;;;;;;;0.52;0.52;;;;;;;;;;5038984;28;92584;-77
2022/06/11 09:26:48;;;;;;;0.10;0.10;;;;;;;;;;5038758;27;93905;-78
2022/06/11 09:29:21;;;;;;;0.10;0.10;;;;;;;;;;5038593;28;92269;-77
2022/06/11 09:31:56;;;;;;;0.10;0.10;;;;;;;;;;5039421;28;93772;-78
2022/06/11 09:34:32;;;;;;;0.10;0.10;;;;;;;;;;5020151;28;95966;-76
2022/06/11 09:37:04;;;;;;;0.20;0.20;;;;;;;;;;5041534;28;92280;-77
2022/06/11 09:39:37;;;;;;;0.10;0.10;;;;;;;;;;5036488;28;95847;-77
2022/06/11 09:42:29;;;;;;;0.10;0.10;;;;;;;;;;5038574;28;92166;-76
2022/06/11 09:45:06;;;;;;;0.35;0.35;;;;;;;;;;5020602;28;94387;-76
2022/06/11 09:47:44;;;;;;;0.10;0.10;;;;;;;;;;5038161;28;93715;-78
2022/06/11 09:50:21;;;;;;;0.10;0.10;;;;;;;;;;5038440;28;92209;-78
2022/06/11 09:52:54;;;;;;;0.10;0.10;;;;;;;;;;5038486;28;93903;-76
2022/06/11 09:55:28;;;;;;;1.20;0.55;;;;;;;;;;5020588;28;93832;-75
2022/06/11 09:58:07;;;;;;;0.10;0.10;;;;;;;;;;5038544;28;91453;-78
2022/06/11 10:00:59;;;;;;;0.20;0.20;;;;;;;;;;5041543;28;92150;-76
2022/06/11 10:03:35;;;;;;;0.20;0.20;;;;;;;;;;5038370;28;92234;-78
2022/06/11 10:06:20;;;;;;;0.10;0.10;;;;;;;;;;5020052;28;94693;-78
2022/06/11 10:08:57;;;;;;;0.20;0.20;;;;;;;;;;5037677;28;93744;-76
2022/06/11 10:11:35;;;;;;;0.10;0.10;;;;;;;;;;5037988;28;92255;-78
2022/06/11 10:14:28;;;;;;;0.10;0.10;;;;;;;;;;5038169;28;93399;-76
2022/06/11 10:16:50;;;;;;;0.20;0.20;;;;;;;;;;5037674;28;94143;-77
2022/06/11 10:19:30;;;;;;;0.10;0.10;;;;;;;;;;5037632;28;92284;-76
2022/06/11 10:22:02;;;;;;;0.10;0.10;;;;;;;;;;5037958;28;93433;-77
2022/06/11 10:24:30;;;;;;;0.10;0.10;;;;;;;;;;5040883;28;93257;-77
2022/06/11 10:27:00;;;;;;;0.10;0.10;;;;;;;;;;5037883;28;92372;-77
2022/06/11 10:29:30;;;;;;;0.10;0.10;;;;;;;;;;5037306;28;93551;-76
2022/06/11 10:32:00;;;;;;;0.10;0.10;;;;;;;;;;5036242;28;95382;-77
2022/06/11 10:34:28;;;;;;;0.10;0.10;;;;;;;;;;5037714;28;95708;-76
2022/06/11 10:37:07;;;;;;;0.10;0.10;;;;;;;;;;5036526;28;93112;-78
2022/06/11 10:39:46;;;;;;;0.10;0.10;;;;;;;;;;5037751;28;92319;-77
2022/06/11 10:42:18;;;;;;;0.15;0.15;;;;;;;;;;5037365;28;92753;-77
2022/06/11 10:44:49;;;;;;;0.10;0.10;;;;;;;;;;5037544;28;94018;-80
2022/06/11 10:47:19;;;;;;;0.75;0.75;;;;;;;;;;5040565;28;92209;-74
2022/06/11 10:49:48;;;;;;;0.10;0.10;;;;;;;;;;5037960;28;92256;-76
2022/06/11 10:52:14;;;;;;;0.10;0.10;;;;;;;;;;5037612;28;92244;-75
2022/06/11 10:54:40;;;;;;;0.10;0.10;;;;;;;;;;5037111;28;93783;-74
2022/06/11 10:57:12;;;;;;;1.45;0.47;;;;;;;;;;5035586;28;95862;-77
2022/06/11 10:59:44;;;;;;;0.20;0.20;;;;;;;;;;5037066;28;92371;-76
2022/06/11 11:02:17;;;;;;;0.10;0.10;;;;;;;;;;5037226;28;92967;-75
2022/06/11 11:05:07;;;;;;;0.28;0.22;;;;;;;;;;5038177;28;92835;-76
2022/06/11 11:07:43;;;;;;;0.10;0.10;;;;;;;;;;5011794;28;92484;-75
2022/06/11 11:10:26;;;;;;;0.13;0.13;;;;;;;;;;5018912;28;95856;-72
2022/06/11 11:12:55;;;;;;;0.10;0.10;;;;;;;;;;5037151;28;92674;-74
2022/06/11 11:15:25;;;;;;;0.10;0.10;;;;;;;;;;5037453;28;93402;-74
2022/06/11 11:18:00;;;;;;;0.20;0.20;;;;;;;;;;5036952;28;93885;-80
2022/06/11 11:20:34;;;;;;;0.10;0.10;;;;;;;;;;5037183;28;92624;-80
2022/06/11 11:23:14;;;;;;;0.10;0.10;;;;;;;;;;5035509;28;94668;-78
2022/06/11 11:25:43;;;;;;;0.10;0.10;;;;;;;;;;5036769;28;94260;-76
2022/06/11 11:28:24;;;;;;;0.10;0.10;;;;;;;;;;5036692;28;92392;-76
2022/06/11 11:31:03;;;;;;;0.10;0.10;;;;;;;;;;5039839;28;93399;-78
2022/06/11 11:33:32;;;;;;;0.10;0.10;;;;;;;;;;5036783;28;92350;-78
2022/06/11 11:36:00;;;;;;;0.10;0.10;;;;;;;;;;5036928;28;93368;-78
2022/06/11 11:38:28;;;;;;;0.20;0.20;;;;;;;;;;5036243;28;93776;-77
2022/06/11 11:41:01;;;;;;;0.10;0.10;;;;;;;;;;5037392;28;91643;-77
2022/06/11 11:43:35;;;;;;;0.10;0.10;;;;;;;;;;5036970;28;92883;-76
2022/06/11 11:46:06;;;;;;;0.20;0.20;;;;;;;;;;5036708;28;93407;-76
2022/06/11 11:48:35;;;;;;;0.10;0.10;;;;;;;;;;5035996;27;94695;-75
2022/06/11 11:51:28;;;;;;;0.10;0.10;;;;;;;;;;5039683;28;95702;-75
2022/06/11 11:53:58;;;;;;;0.10;0.10;;;;;;;;;;5038229;28;93678;-74
2022/06/11 11:56:30;;;;;;;0.10;0.10;;;;;;;;;;5040214;28;93384;-75
2022/06/11 11:59:01;;;;;;;0.10;0.10;;;;;;;;;;5039722;28;93633;-76
2022/06/11 12:01:29;;;;;;;0.10;0.10;;;;;;;;;;5039870;28;92338;-77
2022/06/11 12:04:04;;;;;;;0.10;0.10;;;;;;;;;;5040291;28;92808;-74
2022/06/11 12:06:36;;;;;;;0.10;0.10;;;;;;;;;;5022391;28;94454;-74
2022/06/11 12:09:04;;;;;;;0.10;0.10;;;;;;;;;;5021949;28;92364;-74
2022/06/11 12:11:33;;;;;;;0.20;0.20;;;;;;;;;;5039813;28;93680;-75
2022/06/11 12:13:59;;;;;;;0.10;0.10;;;;;;;;;;5037610;28;96413;-75
2022/06/11 12:16:36;;;;;;;0.10;0.10;;;;;;;;;;5043082;28;92237;-75
2022/06/11 12:19:22;;;;;;;0.10;0.10;;;;;;;;;;5021469;28;95198;-74
2022/06/11 12:21:55;;;;;;;0.20;0.20;;;;;;;;;;5039565;28;92458;-75
2022/06/11 12:24:26;;;;;;;0.10;0.10;;;;;;;;;;5039778;28;92808;-76
2022/06/11 12:26:56;;;;;;;1.25;0.20;;;;;;;;;;5039465;28;93504;-75
2022/06/11 12:29:23;;;;;;;0.10;0.10;;;;;;;;;;5039554;28;92296;-76
2022/06/11 12:31:49;;;;;;;0.10;0.10;;;;;;;;;;5040226;28;93456;-75
2022/06/11 12:34:17;;;;;;;0.10;0.10;;;;;;;;;;5039514;28;93774;-76
2022/06/11 12:36:50;;;;;;;0.10;0.10;;;;;;;;;;5039217;28;92332;-69
2022/06/11 12:39:19;;;;;;;0.10;0.10;;;;;;;;;;5041081;28;94669;-77
2022/06/11 12:41:53;;;;;;;0.10;0.10;;;;;;;;;;5039841;28;92169;-78
2022/06/11 12:44:38;;;;;;;0.10;0.10;;;;;;;;;;5039700;28;93281;-77
2022/06/11 12:47:04;;;;;;;0.20;0.20;;;;;;;;;;5039350;28;93955;-76
2022/06/11 12:49:34;;;;;;;0.10;0.10;;;;;;;;;;5039027;28;92313;-78
2022/06/11 12:52:11;;;;;;;0.10;0.10;;;;;;;;;;5039466;28;93227;-77
2022/06/11 12:54:51;;;;;;;0.10;0.10;;;;;;;;;;5039174;28;93472;-77
2022/06/11 12:57:18;;;;;;;0.20;0.20;;;;;;;;;;5039789;28;91407;-78
2022/06/11 12:59:44;;;;;;;0.10;0.10;;;;;;;;;;5038072;27;92807;-76
2022/06/11 13:02:26;;;;;;;0.10;0.10;;;;;;;;;;5042059;28;93972;-76
2022/06/11 13:04:53;;;;;;;0.10;0.10;;;;;;;;;;5037401;28;94804;-78
2022/06/11 13:07:43;;;;;;;0.10;0.10;;;;;;;;;;5039027;28;94036;-74
2022/06/11 13:10:19;;;;;;;0.10;0.10;;;;;;;;;;5025460;28;92372;-70
2022/06/11 13:13:07;;;;;;;0.10;0.10;;;;;;;;;;5039047;28;93194;-72
2022/06/11 13:15:48;;;;;;;0.10;0.10;;;;;;;;;;5038693;28;93558;-71
2022/06/11 13:18:22;;;;;;;0.10;0.10;;;;;;;;;;5037703;27;92984;-71
2022/06/11 13:21:06;;;;;;;0.10;0.10;;;;;;;;;;5037886;27;93278;-70
2022/06/11 13:23:52;;;;;;;0.10;0.10;;;;;;;;;;5041626;27;92890;-71
2022/06/11 13:26:29;;;;;;;0.10;0.10;;;;;;;;;;5020012;27;92823;-71
2022/06/11 13:29:05;;;;;;;0.10;0.10;;;;;;;;;;5037616;27;93698;-70
2022/06/11 13:31:44;;;;;;;0.10;0.10;;;;;;;;;;5036288;27;94762;-71
2022/06/11 13:34:31;;;;;;;0.10;0.10;;;;;;;;;;5038038;27;96254;-70
2022/06/11 13:37:16;;;;;;;0.10;0.10;;;;;;;;;;5037970;27;93697;-70
2022/06/11 13:40:01;;;;;;;0.10;0.10;;;;;;;;;;5038155;27;92375;-70
2022/06/11 13:42:33;;;;;;;0.10;0.10;;;;;;;;;;5040418;27;93170;-70
2022/06/11 13:45:00;;;;;;;0.10;0.10;;;;;;;;;;5037715;27;93819;-70
2022/06/11 13:47:26;;;;;;;0.10;0.10;;;;;;;;;;5040761;27;92322;-71
2022/06/11 13:50:09;;;;;;;0.10;0.10;;;;;;;;;;5037601;27;92859;-71
2022/06/11 13:55:29;;;;;;;0.10;0.10;;;;;;;;;;5037778;27;93192;-70
2022/06/11 13:58:04;;;;;;;0.10;0.10;;;;;;;;;;5035391;27;96030;-74
2022/06/11 14:00:30;;;;;;;0.10;0.10;;;;;;;;;;5037387;27;92344;-73
2022/06/11 14:03:26;;;;;;;0.28;0.28;;;;;;;;;;5040771;27;93415;-74
2022/06/11 14:05:53;;;;;;;0.15;0.15;;;;;;;;;;5037190;27;93359;-74
2022/06/11 14:08:22;;;;;;;0.10;0.10;;;;;;;;;;5037927;27;93025;-74
2022/06/11 14:10:50;;;;;;;1.17;0.22;;;;;;;;;;5040346;27;93243;-73
2022/06/11 14:13:35;;;;;;;0.10;0.10;;;;;;;;;;5037345;27;93296;-75
2022/06/11 14:16:21;;;;;;;0.00;0.00;;;;;;;;;;5041474;27;93276;-73
2022/06/11 14:18:47;;;;;;;0.10;0.10;;;;;;;;;;5019525;27;93949;-74
2022/06/11 14:21:32;;;;;;;0.15;0.15;;;;;;;;;;5037036;27;93051;-73
2022/06/11 14:23:58;;;;;;;0.10;0.10;;;;;;;;;;5035694;27;94696;-73
2022/06/11 14:26:48;;;;;;;0.10;0.10;;;;;;;;;;5037230;27;93901;-72
2022/06/11 14:29:19;;;;;;;0.10;0.10;;;;;;;;;;5037436;27;92749;-72
2022/06/11 14:31:49;;;;;;;0.10;0.10;;;;;;;;;;5037229;27;93476;-72
2022/06/11 14:34:21;;;;;;;0.10;0.10;;;;;;;;;;5040743;27;93564;-72
2022/06/11 14:37:02;;;;;;;0.10;0.10;;;;;;;;;;5037131;27;93361;-73
2022/06/11 14:39:33;;;;;;;0.10;0.10;;;;;;;;;;5037220;27;93357;-70
2022/06/11 14:42:08;;;;;;;0.10;0.10;;;;;;;;;;5037895;27;92882;-72
2022/06/11 14:44:36;;;;;;;0.10;0.10;;;;;;;;;;5037215;27;92573;-74
2022/06/11 14:47:03;;;;;;;0.10;0.10;;;;;;;;;;5036684;27;93755;-75
2022/06/11 14:49:36;;;;;;;0.10;0.10;;;;;;;;;;5035693;27;94872;-75
2022/06/11 14:52:02;;;;;;;0.10;0.10;;;;;;;;;;5019995;28;98014;-75
2022/06/11 14:54:34;;;;;;;0.10;0.10;;;;;;;;;;5036395;27;93557;-75
2022/06/11 14:57:22;;;;;;;0.10;0.10;;;;;;;;;;5039867;27;92282;-74
2022/06/11 15:00:11;;;;;;;0.20;0.20;;;;;;;;;;4980902;28;93717;-76
2022/06/11 15:02:55;;;;;;;0.10;0.10;;;;;;;;;;4997775;28;92294;-75
2022/06/11 15:05:31;;;;;;;0.10;0.10;;;;;;;;;;4995634;28;93207;-74
2022/06/11 15:08:14;;;;;;;0.10;0.10;;;;;;;;;;4996675;28;92337;-74
2022/06/11 15:11:00;;;;;;;0.10;0.10;;;;;;;;;;4996701;28;92889;-74